createdAt,value
2023-03-01T00:01:45.337Z,52.53
2023-03-01T00:04:13.391Z,52.29
2023-03-01T00:06:41.522Z,52.33
2023-03-01T00:09:09.641Z,52.85
2023-03-01T00:11:37.694Z,52.75
2023-03-01T00:14:07.648Z,52.69
2023-03-01T00:16:40.711Z,52.97
2023-03-01T00:19:13.158Z,52.69
2023-03-01T00:21:41.419Z,52.18
2023-03-01T00:24:10.700Z,52.58
2023-03-01T00:26:38.755Z,52.61
2023-03-01T00:29:07.078Z,52.92
2023-03-01T00:31:37.760Z,52.96
2023-03-01T00:34:08.131Z,52.83
2023-03-01T00:36:38.850Z,52.70
2023-03-01T00:39:11.737Z,52.94
2023-03-01T00:41:41.108Z,53.01
2023-03-01T00:44:10.537Z,52.97
2023-03-01T00:46:40.711Z,52.81
2023-03-01T00:49:08.823Z,53.19
2023-03-01T00:51:36.881Z,52.99
2023-03-01T00:54:05.151Z,52.97
2023-03-01T00:56:33.986Z,52.82
2023-03-01T00:59:02.570Z,52.88
2023-03-01T01:01:33.270Z,53.54
2023-03-01T01:04:06.116Z,53.58
2023-03-01T01:06:37.180Z,54.16
2023-03-01T01:09:07.554Z,54.14
2023-03-01T01:11:37.331Z,54.18
2023-03-01T01:14:05.967Z,54.01
2023-03-01T01:16:34.331Z,54.04
2023-03-01T01:19:04.580Z,53.71
2023-03-01T01:21:33.301Z,53.36
2023-03-01T01:24:01.641Z,52.95
2023-03-01T01:26:33.514Z,53.03
2023-03-01T01:29:03.488Z,53.50
2023-03-01T01:31:32.456Z,53.64
2023-03-01T01:34:02.755Z,53.86
2023-03-01T01:36:33.629Z,53.72
2023-03-01T01:39:02.514Z,53.63
2023-03-01T01:41:31.604Z,53.87
2023-03-01T01:44:21.823Z,54.05
2023-03-01T01:46:54.599Z,54.61
2023-03-01T01:49:33.094Z,54.85
2023-03-01T01:52:11.598Z,54.88
2023-03-01T01:54:47.052Z,54.40
2023-03-01T01:57:21.817Z,54.00
2023-03-01T01:59:54.848Z,54.57
2023-03-01T02:02:23.164Z,54.63
2023-03-01T02:04:54.719Z,54.83
2023-03-01T02:07:25.684Z,54.67
2023-03-01T02:09:55.187Z,54.54
2023-03-01T02:12:26.771Z,54.48
2023-03-01T02:14:54.843Z,54.47
2023-03-01T02:17:23.831Z,54.77
2023-03-01T02:20:14.798Z,54.54
2023-03-01T02:22:46.799Z,54.19
2023-03-01T02:25:42.430Z,54.67
2023-03-01T02:28:25.269Z,54.50
2023-03-01T02:31:12.738Z,55.29
2023-03-01T02:33:42.079Z,54.71
2023-03-01T02:36:16.062Z,55.06
2023-03-01T02:38:44.864Z,55.12
2023-03-01T02:41:16.848Z,55.13
2023-03-01T02:43:46.708Z,55.72
2023-03-01T02:46:19.191Z,55.85
2023-03-01T02:48:50.626Z,55.40
2023-03-01T02:51:44.520Z,55.58
2023-03-01T02:54:26.441Z,55.70
2023-03-01T02:56:55.286Z,55.78
2023-03-01T02:59:31.859Z,55.44
2023-03-01T03:01:59.912Z,55.53
2023-03-01T03:04:28.023Z,55.42
2023-03-01T03:06:56.096Z,55.37
2023-03-01T03:09:24.525Z,55.61
2023-03-01T03:11:52.749Z,55.38
2023-03-01T03:14:20.906Z,55.57
2023-03-01T03:16:52.653Z,55.90
2023-03-01T03:19:21.793Z,55.88
2023-03-01T03:21:50.460Z,55.77
2023-03-01T03:24:19.295Z,55.62
2023-03-01T03:26:47.395Z,55.50
2023-03-01T03:29:15.558Z,55.99
2023-03-01T03:31:43.644Z,55.72
2023-03-01T03:34:18.814Z,55.50
2023-03-01T03:36:47.010Z,55.67
2023-03-01T03:39:15.089Z,55.69
2023-03-01T03:41:43.086Z,55.64
2023-03-01T03:44:11.168Z,56.06
2023-03-01T03:46:39.259Z,55.73
2023-03-01T03:49:07.310Z,55.30
2023-03-01T03:51:36.722Z,55.78
2023-03-01T03:54:05.017Z,55.50
2023-03-01T03:56:33.439Z,55.38
2023-03-01T03:59:01.790Z,55.85
2023-03-01T04:01:29.900Z,55.83
2023-03-01T04:04:04.998Z,55.87
2023-03-01T04:06:33.544Z,56.01
2023-03-01T04:09:03.980Z,56.07
2023-03-01T04:11:32.297Z,55.46
2023-03-01T04:14:01.151Z,55.64
2023-03-01T04:16:29.814Z,55.51
2023-03-01T04:19:00.607Z,55.40
2023-03-01T04:21:28.710Z,55.48
2023-03-01T04:23:56.825Z,55.43
2023-03-01T04:26:26.343Z,55.49
2023-03-01T04:28:54.425Z,56.12
2023-03-01T04:31:22.973Z,56.02
2023-03-01T04:33:53.892Z,56.09
2023-03-01T04:36:25.285Z,55.72
2023-03-01T04:38:53.891Z,55.66
2023-03-01T04:41:24.478Z,55.74
2023-03-01T04:43:54.152Z,55.41
2023-03-01T04:46:23.285Z,55.42
2023-03-01T04:48:51.482Z,55.88
2023-03-01T04:51:19.685Z,55.89
2023-03-01T04:53:48.063Z,56.04
2023-03-01T04:56:18.758Z,56.50
2023-03-01T04:58:48.199Z,56.21
2023-03-01T05:01:20.655Z,56.41
2023-03-01T05:03:51.148Z,56.33
2023-03-01T05:06:21.544Z,55.78
2023-03-01T05:08:49.827Z,55.66
2023-03-01T05:11:17.891Z,56.29
2023-03-01T05:13:46.030Z,56.08
2023-03-01T05:16:14.105Z,56.09
2023-03-01T05:18:44.372Z,55.98
2023-03-01T05:21:16.987Z,56.29
2023-03-01T05:23:45.592Z,55.29
2023-03-01T05:26:27.916Z,56.11
2023-03-01T05:28:59.541Z,55.23
2023-03-01T05:31:28.257Z,55.56
2023-03-01T05:33:57.671Z,56.27
2023-03-01T05:36:25.744Z,55.79
2023-03-01T05:38:53.802Z,55.83
2023-03-01T05:41:21.892Z,56.13
2023-03-01T05:43:49.904Z,56.09
2023-03-01T05:46:17.982Z,56.03
2023-03-01T05:48:46.077Z,56.24
2023-03-01T05:51:15.506Z,56.14
2023-03-01T05:53:43.620Z,56.19
2023-03-01T05:56:11.762Z,56.02
2023-03-01T05:58:40.066Z,55.99
2023-03-01T06:01:13.695Z,55.64
2023-03-01T06:03:41.754Z,56.01
2023-03-01T06:06:09.801Z,55.72
2023-03-01T06:08:39.169Z,55.78
2023-03-01T06:11:08.126Z,55.79
2023-03-01T06:13:36.220Z,55.93
2023-03-01T06:16:08.168Z,55.80
2023-03-01T06:18:36.349Z,55.85
2023-03-01T06:21:05.857Z,55.73
2023-03-01T06:23:34.373Z,56.03
2023-03-01T06:26:08.894Z,55.75
2023-03-01T06:28:37.690Z,55.40
2023-03-01T06:31:09.657Z,56.16
2023-03-01T06:33:40.557Z,55.93
2023-03-01T06:36:10.976Z,56.10
2023-03-01T06:38:39.289Z,56.55
2023-03-01T06:41:09.254Z,55.91
2023-03-01T06:43:37.309Z,55.66
2023-03-01T06:46:08.669Z,56.17
2023-03-01T06:48:36.931Z,55.62
2023-03-01T06:51:05.370Z,55.30
2023-03-01T06:53:33.499Z,55.50
2023-03-01T06:56:01.787Z,55.46
2023-03-01T06:58:31.286Z,55.77
2023-03-01T07:00:59.330Z,55.84
2023-03-01T07:03:27.545Z,55.68
2023-03-01T07:05:55.548Z,55.71
2023-03-01T07:08:24.703Z,55.72
2023-03-01T07:10:57.859Z,55.94
2023-03-01T07:13:26.185Z,55.48
2023-03-01T07:15:55.716Z,55.60
2023-03-01T07:18:23.993Z,55.98
2023-03-01T07:20:52.170Z,55.93
2023-03-01T07:23:20.389Z,56.05
2023-03-01T07:25:55.063Z,55.91
2023-03-01T07:28:24.945Z,56.17
2023-03-01T07:30:53.056Z,56.09
2023-03-01T07:33:22.867Z,55.86
2023-03-01T07:35:57.319Z,55.82
2023-03-01T07:38:25.580Z,56.52
2023-03-01T07:40:53.645Z,55.86
2023-03-01T07:43:22.322Z,56.38
2023-03-01T07:45:50.393Z,56.19
2023-03-01T07:48:18.433Z,56.17
2023-03-01T07:50:48.304Z,56.11
2023-03-01T07:53:16.381Z,55.26
2023-03-01T07:55:44.423Z,55.99
2023-03-01T07:58:12.519Z,56.18
2023-03-01T08:00:40.588Z,55.20
2023-03-01T08:03:08.756Z,55.46
2023-03-01T08:05:36.902Z,55.64
2023-03-01T08:08:06.988Z,55.07
2023-03-01T08:10:35.095Z,54.80
2023-03-01T08:13:03.084Z,55.41
2023-03-01T08:15:31.456Z,55.32
2023-03-01T08:17:59.504Z,54.56
2023-03-01T08:20:27.532Z,55.45
2023-03-01T08:22:55.567Z,55.08
2023-03-01T08:25:24.953Z,55.53
2023-03-01T08:27:53.038Z,55.20
2023-03-01T08:30:21.507Z,55.53
2023-03-01T08:32:49.618Z,54.93
2023-03-01T08:35:18.056Z,54.69
2023-03-01T08:37:46.149Z,54.47
2023-03-01T08:40:15.787Z,54.94
2023-03-01T08:42:45.342Z,54.53
2023-03-01T08:45:15.262Z,54.09
2023-03-01T08:47:43.401Z,54.82
2023-03-01T08:50:12.326Z,54.29
2023-03-01T08:52:40.573Z,54.32
2023-03-01T08:55:10.382Z,54.54
2023-03-01T08:57:38.426Z,54.22
2023-03-01T09:00:10.675Z,52.98
2023-03-01T09:02:39.695Z,53.29
2023-03-01T09:05:08.552Z,53.30
2023-03-01T09:07:36.572Z,53.37
2023-03-01T09:10:06.040Z,52.98
2023-03-01T09:12:34.068Z,52.24
2023-03-01T09:15:02.198Z,52.08
2023-03-01T09:17:31.730Z,52.55
2023-03-01T09:20:00.624Z,51.49
2023-03-01T09:22:28.719Z,51.58
2023-03-01T09:24:57.504Z,51.06
2023-03-01T09:27:26.122Z,51.40
2023-03-01T09:29:54.186Z,49.97
2023-03-01T09:32:22.278Z,50.41
2023-03-01T09:35:05.659Z,50.57
2023-03-01T09:37:35.183Z,49.80
2023-03-01T09:40:03.852Z,49.62
2023-03-01T09:42:35.793Z,49.98
2023-03-01T09:45:07.885Z,49.31
2023-03-01T09:47:38.909Z,49.47
2023-03-01T09:50:15.698Z,48.97
2023-03-01T09:52:47.982Z,47.96
2023-03-01T09:55:19.540Z,48.11
2023-03-01T09:57:56.853Z,48.50
2023-03-01T10:00:38.052Z,48.30
2023-03-01T10:03:18.615Z,47.93
2023-03-01T10:06:01.691Z,47.33
2023-03-01T10:08:38.673Z,47.72
2023-03-01T10:11:16.267Z,48.02
2023-03-01T10:13:53.749Z,47.52
2023-03-01T10:16:29.736Z,48.24
2023-03-01T10:19:02.022Z,47.27
2023-03-01T10:21:33.387Z,46.87
2023-03-01T10:24:13.334Z,47.06
2023-03-01T10:26:50.306Z,46.42
2023-03-01T10:29:19.783Z,46.87
2023-03-01T10:31:50.617Z,46.14
2023-03-01T10:34:21.335Z,46.28
2023-03-01T10:36:54.979Z,46.19
2023-03-01T10:39:34.446Z,46.69
2023-03-01T10:42:27.275Z,46.59
2023-03-01T10:44:55.381Z,46.64
2023-03-01T10:47:26.898Z,46.38
2023-03-01T10:50:02.180Z,45.26
2023-03-01T10:52:36.427Z,45.75
2023-03-01T10:55:35.489Z,45.33
2023-03-01T10:58:20.106Z,45.66
2023-03-01T11:00:53.649Z,45.86
2023-03-01T11:03:25.938Z,45.74
2023-03-01T11:06:03.114Z,46.40
2023-03-01T11:08:54.903Z,45.75
2023-03-01T11:11:36.897Z,45.07
2023-03-01T11:14:25.987Z,45.07
2023-03-01T11:17:03.385Z,45.88
2023-03-01T11:19:32.301Z,45.38
2023-03-01T11:22:07.800Z,45.24
2023-03-01T11:24:43.783Z,45.16
2023-03-01T11:27:23.390Z,46.03
2023-03-01T11:29:58.080Z,45.41
2023-03-01T11:32:33.475Z,45.38
2023-03-01T11:35:12.331Z,44.91
2023-03-01T11:37:46.218Z,44.51
2023-03-01T11:40:25.154Z,44.80
2023-03-01T11:43:07.459Z,44.47
2023-03-01T11:45:53.646Z,45.26
2023-03-01T11:48:49.794Z,44.29
2023-03-01T11:51:27.247Z,44.19
2023-03-01T11:54:16.134Z,45.06
2023-03-01T11:56:52.618Z,44.29
2023-03-01T11:59:47.003Z,44.46
2023-03-01T12:02:40.082Z,44.89
2023-03-01T12:05:54.208Z,44.37
2023-03-01T12:08:30.909Z,43.53
2023-03-01T12:11:14.098Z,44.65
2023-03-01T12:14:09.530Z,44.21
2023-03-01T12:17:04.433Z,44.14
2023-03-01T12:19:57.338Z,44.66
2023-03-01T12:22:33.743Z,43.70
2023-03-01T12:25:23.137Z,43.70
2023-03-01T12:28:26.218Z,43.34
2023-03-01T12:31:16.907Z,43.80
2023-03-01T12:33:56.435Z,44.01
2023-03-01T12:36:55.085Z,43.29
2023-03-01T12:39:46.363Z,43.71
2023-03-01T12:42:29.237Z,44.00
2023-03-01T12:45:28.112Z,43.41
2023-03-01T12:48:24.799Z,43.17
2023-03-01T12:50:59.047Z,43.47
2023-03-01T12:53:30.628Z,43.65
2023-03-01T12:56:03.359Z,42.33
2023-03-01T12:58:48.854Z,43.73
2023-03-01T13:01:30.341Z,43.73
2023-03-01T13:04:20.139Z,43.05
2023-03-01T13:07:15.139Z,43.35
2023-03-01T13:09:51.914Z,42.99
2023-03-01T13:12:52.876Z,43.03
2023-03-01T13:15:34.197Z,43.08
2023-03-01T13:18:05.235Z,42.83
2023-03-01T13:20:49.049Z,43.41
2023-03-01T13:23:29.720Z,43.50
2023-03-01T13:26:21.633Z,42.67
2023-03-01T13:28:57.882Z,43.05
2023-03-01T13:32:02.880Z,43.21
2023-03-01T13:34:48.449Z,42.92
2023-03-01T13:37:39.711Z,42.45
2023-03-01T13:41:00.067Z,43.50
2023-03-01T13:43:37.461Z,43.50
2023-03-01T13:46:17.316Z,42.91
2023-03-01T13:48:49.905Z,43.83
2023-03-01T13:51:23.981Z,43.33
2023-03-01T13:53:55.910Z,43.36
2023-03-01T13:56:27.995Z,43.37
2023-03-01T13:59:01.849Z,43.58
2023-03-01T14:01:32.503Z,43.60
2023-03-01T14:04:02.806Z,43.99
2023-03-01T14:06:34.589Z,44.06
2023-03-01T14:09:17.428Z,44.12
2023-03-01T14:12:22.302Z,44.30
2023-03-01T14:15:04.485Z,44.30
2023-03-01T14:17:51.282Z,44.08
2023-03-01T14:20:23.082Z,44.09
2023-03-01T14:22:54.842Z,43.96
2023-03-01T14:25:30.725Z,43.99
2023-03-01T14:28:06.375Z,44.16
2023-03-01T14:30:39.443Z,43.92
2023-03-01T14:33:23.727Z,44.27
2023-03-01T14:36:02.042Z,44.24
2023-03-01T14:38:36.825Z,44.41
2023-03-01T14:41:16.806Z,44.47
2023-03-01T14:43:51.532Z,43.95
2023-03-01T14:46:23.590Z,44.28
2023-03-01T14:48:54.359Z,44.29
2023-03-01T14:51:23.450Z,43.99
2023-03-01T14:53:53.001Z,44.15
2023-03-01T14:56:22.668Z,44.26
2023-03-01T14:58:54.518Z,43.77
2023-03-01T15:01:23.223Z,44.07
2023-03-01T15:03:53.244Z,43.93
2023-03-01T15:06:24.479Z,43.66
2023-03-01T15:08:55.956Z,43.58
2023-03-01T15:11:30.315Z,44.25
2023-03-01T15:13:58.731Z,43.91
2023-03-01T15:16:29.272Z,43.25
2023-03-01T15:19:01.724Z,44.04
2023-03-01T15:21:34.133Z,44.02
2023-03-01T15:24:12.563Z,43.94
2023-03-01T15:26:46.679Z,44.13
2023-03-01T15:29:20.172Z,43.90
2023-03-01T15:31:57.955Z,43.92
2023-03-01T15:34:29.354Z,43.81
2023-03-01T15:37:01.047Z,44.32
2023-03-01T15:39:44.268Z,43.76
2023-03-01T15:42:25.869Z,43.83
2023-03-01T15:45:11.035Z,44.36
2023-03-01T15:47:42.534Z,44.67
2023-03-01T15:50:21.699Z,44.69
2023-03-01T15:52:50.301Z,44.34
2023-03-01T15:55:21.125Z,44.47
2023-03-01T15:57:52.028Z,44.02
2023-03-01T16:00:21.569Z,44.46
2023-03-01T16:02:49.804Z,44.44
2023-03-01T16:05:24.377Z,44.16
2023-03-01T16:07:53.296Z,43.96
2023-03-01T16:10:22.299Z,44.72
2023-03-01T16:12:53.545Z,44.69
2023-03-01T16:15:24.383Z,44.60
2023-03-01T16:17:53.217Z,44.89
2023-03-01T16:20:30.105Z,44.63
2023-03-01T16:23:02.022Z,44.39
2023-03-01T16:25:31.601Z,44.41
2023-03-01T16:28:06.256Z,44.73
2023-03-01T16:30:36.238Z,44.84
2023-03-01T16:33:19.234Z,44.34
2023-03-01T16:35:54.230Z,44.86
2023-03-01T16:38:22.637Z,44.63
2023-03-01T16:40:53.452Z,44.56
2023-03-01T16:43:22.856Z,44.51
2023-03-01T16:45:50.982Z,44.53
2023-03-01T16:48:19.126Z,44.44
2023-03-01T16:50:47.197Z,44.82
2023-03-01T16:53:15.388Z,44.93
2023-03-01T16:55:46.456Z,44.59
2023-03-01T16:58:16.386Z,44.74
2023-03-01T17:00:46.168Z,44.95
2023-03-01T17:03:14.725Z,44.52
2023-03-01T17:05:42.899Z,44.99
2023-03-01T17:08:11.028Z,44.69
2023-03-01T17:10:39.074Z,44.55
2023-03-01T17:13:07.294Z,45.21
2023-03-01T17:15:35.390Z,45.06
2023-03-01T17:18:05.759Z,44.80
2023-03-01T17:20:33.963Z,45.36
2023-03-01T17:23:02.111Z,45.46
2023-03-01T17:25:30.358Z,44.94
2023-03-01T17:27:59.070Z,45.46
2023-03-01T17:30:27.394Z,45.45
2023-03-01T17:32:56.190Z,45.10
2023-03-01T17:35:25.949Z,45.79
2023-03-01T17:37:54.117Z,46.04
2023-03-01T17:40:22.638Z,45.71
2023-03-01T17:42:52.491Z,45.64
2023-03-01T17:45:20.823Z,45.61
2023-03-01T17:47:49.136Z,46.16
2023-03-01T17:53:13.121Z,46.08
2023-03-01T17:55:43.316Z,46.18
2023-03-01T17:58:22.570Z,46.56
2023-03-01T18:00:51.071Z,46.58
2023-03-01T18:03:25.913Z,46.49
2023-03-01T18:05:54.294Z,46.15
2023-03-01T18:08:23.669Z,45.96
2023-03-01T18:11:00.188Z,46.21
2023-03-01T18:13:29.580Z,46.24
2023-03-01T18:16:01.534Z,46.46
2023-03-01T18:18:29.878Z,46.92
2023-03-01T18:20:58.638Z,46.52
2023-03-01T18:23:30.708Z,46.29
2023-03-01T18:26:00.718Z,46.74
2023-03-01T18:28:29.380Z,47.01
2023-03-01T18:30:58.918Z,46.44
2023-03-01T18:33:27.342Z,46.75
2023-03-01T18:35:55.596Z,46.89
2023-03-01T18:38:25.273Z,46.73
2023-03-01T18:40:54.938Z,46.18
2023-03-01T18:43:23.820Z,46.45
2023-03-01T18:45:58.852Z,47.09
2023-03-01T18:48:27.809Z,47.43
2023-03-01T18:50:56.514Z,47.16
2023-03-01T18:53:24.926Z,46.95
2023-03-01T18:56:02.284Z,47.48
2023-03-01T18:58:30.714Z,47.63
2023-03-01T19:01:00.070Z,47.14
2023-03-01T19:03:29.352Z,47.00
2023-03-01T19:05:59.009Z,47.19
2023-03-01T19:08:27.376Z,46.98
2023-03-01T19:11:03.100Z,46.90
2023-03-01T19:13:32.111Z,48.03
2023-03-01T19:16:08.442Z,47.53
2023-03-01T19:18:40.056Z,48.10
2023-03-01T19:21:10.157Z,47.82
2023-03-01T19:23:39.066Z,48.19
2023-03-01T19:26:11.239Z,47.77
2023-03-01T19:28:40.013Z,48.43
2023-03-01T19:31:11.221Z,47.96
2023-03-01T19:33:41.097Z,48.43
2023-03-01T19:36:11.539Z,48.58
2023-03-01T19:38:41.383Z,48.45
2023-03-01T19:41:14.825Z,48.66
2023-03-01T19:43:44.045Z,48.37
2023-03-01T19:46:12.745Z,48.22
2023-03-01T19:48:41.337Z,47.65
2023-03-01T19:51:10.887Z,48.60
2023-03-01T19:53:41.882Z,48.78
2023-03-01T19:56:11.576Z,48.36
2023-03-01T19:58:40.461Z,49.29
2023-03-01T20:01:17.401Z,48.98
2023-03-01T20:03:45.790Z,49.40
2023-03-01T20:06:17.036Z,49.08
2023-03-01T20:08:45.525Z,49.04
2023-03-01T20:11:17.450Z,49.19
2023-03-01T20:13:46.413Z,49.06
2023-03-01T20:16:18.065Z,49.87
2023-03-01T20:18:46.344Z,48.99
2023-03-01T20:21:23.906Z,49.14
2023-03-01T20:23:53.721Z,49.39
2023-03-01T20:26:25.568Z,49.42
2023-03-01T20:28:57.066Z,49.38
2023-03-01T20:31:29.602Z,50.24
2023-03-01T20:33:59.825Z,49.77
2023-03-01T20:36:29.182Z,50.43
2023-03-01T20:38:57.807Z,48.86
2023-03-01T20:41:28.578Z,50.75
2023-03-01T20:43:59.298Z,49.94
2023-03-01T20:46:32.362Z,50.05
2023-03-01T20:49:01.630Z,50.77
2023-03-01T20:51:29.986Z,50.48
2023-03-01T20:53:58.759Z,50.84
2023-03-01T20:56:28.314Z,51.15
2023-03-01T20:59:08.093Z,51.17
2023-03-01T21:01:37.844Z,50.55
2023-03-01T21:04:06.844Z,51.40
2023-03-01T21:06:35.337Z,51.38
2023-03-01T21:09:04.108Z,51.86
2023-03-01T21:11:33.598Z,52.16
2023-03-01T21:14:02.039Z,52.06
2023-03-01T21:16:31.033Z,52.13
2023-03-01T21:19:01.881Z,51.24
2023-03-01T21:21:30.544Z,52.18
2023-03-01T21:23:58.727Z,51.17
2023-03-01T21:26:28.943Z,51.34
2023-03-01T21:29:01.582Z,51.06
2023-03-01T21:31:33.894Z,52.08
2023-03-01T21:34:05.297Z,50.98
2023-03-01T21:36:34.750Z,51.33
2023-03-01T21:39:04.125Z,52.27
2023-03-01T21:41:35.847Z,52.63
2023-03-01T21:44:07.750Z,51.92
2023-03-01T21:46:39.706Z,51.89
2023-03-01T21:49:09.024Z,51.58
2023-03-01T21:51:37.611Z,52.05
2023-03-01T21:54:06.804Z,51.55
2023-03-01T21:56:38.842Z,51.39
2023-03-01T21:59:12.884Z,51.18
2023-03-01T22:01:41.518Z,51.61
2023-03-01T22:04:10.929Z,51.56
2023-03-01T22:06:42.369Z,51.94
2023-03-01T22:09:14.897Z,51.05
2023-03-01T22:11:45.782Z,51.85
2023-03-01T22:14:15.662Z,51.93
2023-03-01T22:16:45.598Z,51.92
2023-03-01T22:19:16.330Z,51.78
2023-03-01T22:21:49.135Z,52.51
2023-03-01T22:24:18.342Z,51.90
2023-03-01T22:26:48.649Z,52.55
2023-03-01T22:29:20.530Z,51.98
2023-03-01T22:31:48.889Z,52.86
2023-03-01T22:34:18.136Z,51.69
2023-03-01T22:36:47.264Z,52.38
2023-03-01T22:39:18.703Z,52.42
2023-03-01T22:41:49.597Z,52.26
2023-03-01T22:44:21.647Z,51.47
2023-03-01T22:46:50.337Z,52.36
2023-03-01T22:49:20.260Z,52.08
2023-03-01T22:51:48.500Z,53.02
2023-03-01T22:54:19.411Z,52.81
2023-03-01T22:56:48.173Z,52.47
2023-03-01T22:59:22.546Z,52.43
2023-03-01T23:01:52.098Z,51.94
2023-03-01T23:04:21.715Z,52.41
2023-03-01T23:06:54.210Z,51.99
2023-03-01T23:09:26.513Z,53.50
2023-03-01T23:11:55.886Z,53.00
2023-03-01T23:14:26.494Z,53.06
2023-03-01T23:16:54.943Z,53.28
2023-03-01T23:19:24.071Z,54.18
2023-03-01T23:21:54.220Z,53.74
2023-03-01T23:24:31.601Z,53.53
2023-03-01T23:27:02.136Z,54.12
2023-03-01T23:29:32.729Z,53.08
2023-03-01T23:32:01.462Z,53.05
2023-03-01T23:34:29.750Z,53.97
2023-03-01T23:36:58.606Z,53.61
2023-03-01T23:39:29.923Z,53.89
2023-03-01T23:41:58.800Z,54.40
2023-03-01T23:44:27.336Z,53.49
2023-03-01T23:46:56.835Z,54.04
2023-03-01T23:49:25.009Z,53.22
2023-03-01T23:51:53.631Z,53.61
2023-03-01T23:54:25.013Z,53.81
2023-03-01T23:56:53.243Z,54.16
2023-03-01T23:59:23.773Z,54.56
